Time;durP1;ratioP1;P1;durP2;ratioP2;P2;SDS_P1;SDS_P2;PMS_P1;PMS_P2;Temp;Humidity;BMP_temperature;BMP_pressure;BME280_temperature;BME280_humidity;BME280_pressure;Samples;Min_cycle;Max_cycle;Signal;HPM_P1;HPM_P2
2021/05/26 00:01:59;;;;;;;0.73;0.70;;;14.20;99.90;;;;;;5026591;28;20032;-75
2021/05/26 00:04:25;;;;;;;0.95;0.82;;;14.30;99.90;;;;;;5028099;28;20030;-75
2021/05/26 00:06:51;;;;;;;1.00;0.80;;;14.20;99.90;;;;;;5028882;28;20084;-75
2021/05/26 00:09:16;;;;;;;2.20;0.98;;;14.10;99.90;;;;;;5030086;28;20319;-75
2021/05/26 00:11:42;;;;;;;5.35;1.20;;;14.10;99.90;;;;;;5026726;28;20056;-74
2021/05/26 00:14:08;;;;;;;3.13;0.73;;;14.00;99.90;;;;;;5028542;28;20502;-74
2021/05/26 00:16:34;;;;;;;2.22;0.70;;;14.10;99.90;;;;;;5028656;28;20156;-74
2021/05/26 00:19:00;;;;;;;1.75;0.47;;;14.00;99.90;;;;;;5028768;28;20037;-74
2021/05/26 00:21:26;;;;;;;2.17;1.48;;;14.00;99.90;;;;;;5028790;28;20109;-74
2021/05/26 00:23:51;;;;;;;1.42;0.90;;;14.00;99.90;;;;;;5030338;28;20026;-75
2021/05/26 00:26:17;;;;;;;2.15;0.75;;;14.00;99.90;;;;;;5031674;28;20021;-75
2021/05/26 00:28:45;;;;;;;1.40;0.93;;;14.00;99.90;;;;;;5028740;28;20048;-75
2021/05/26 00:31:12;;;;;;;5.03;0.65;;;14.00;99.90;;;;;;5032975;28;20036;-75
2021/05/26 00:33:38;;;;;;;1.58;0.77;;;14.00;99.90;;;;;;5030475;28;20060;-74
2021/05/26 00:36:04;;;;;;;0.63;0.63;;;14.00;99.90;;;;;;5032724;28;20048;-75
2021/05/26 00:38:30;;;;;;;2.55;0.82;;;14.00;99.90;;;;;;5033034;28;20022;-74
2021/05/26 00:40:56;;;;;;;1.98;0.88;;;13.90;99.90;;;;;;5031506;28;20377;-76
2021/05/26 00:43:22;;;;;;;4.57;0.73;;;14.00;99.90;;;;;;5029534;28;20069;-74
2021/05/26 00:45:48;;;;;;;1.65;0.88;;;13.90;99.90;;;;;;5032340;28;20045;-74
2021/05/26 00:48:14;;;;;;;3.65;0.80;;;13.90;99.90;;;;;;5031979;28;20501;-74
2021/05/26 00:50:40;;;;;;;3.10;1.02;;;13.90;99.90;;;;;;5031605;28;20057;-73
2021/05/26 00:53:08;;;;;;;1.17;0.90;;;13.90;99.90;;;;;;5032776;28;20029;-73
2021/05/26 00:55:34;;;;;;;3.53;0.90;;;13.90;99.90;;;;;;5033644;28;20048;-74
2021/05/26 00:58:02;;;;;;;2.13;0.70;;;13.90;99.90;;;;;;5026378;28;20022;-74
2021/05/26 01:00:30;;;;;;;3.92;0.90;;;13.80;99.90;;;;;;5030856;28;20029;-74
2021/05/26 01:02:56;;;;;;;0.68;0.38;;;13.80;99.90;;;;;;5031155;28;20032;-73
2021/05/26 01:05:24;;;;;;;4.78;1.02;;;13.80;99.90;;;;;;5031496;28;20025;-73
2021/05/26 01:07:51;;;;;;;1.20;0.82;;;13.80;99.90;;;;;;5031054;28;20083;-75
2021/05/26 01:10:20;;;;;;;1.23;1.08;;;13.70;99.90;;;;;;5032976;28;20026;-73
2021/05/26 01:12:46;;;;;;;2.03;0.80;;;13.70;99.90;;;;;;5031571;28;20097;-73
2021/05/26 01:15:13;;;;;;;1.77;0.60;;;13.70;99.90;;;;;;5031600;28;20116;-74
2021/05/26 01:17:40;;;;;;;4.72;1.00;;;13.70;99.90;;;;;;5019041;28;20032;-74
2021/05/26 01:20:09;;;;;;;3.85;0.82;;;13.60;99.90;;;;;;5029461;28;20029;-75
2021/05/26 01:22:37;;;;;;;1.60;0.90;;;13.60;99.90;;;;;;5020619;28;20371;-74
2021/05/26 01:25:07;;;;;;;1.98;0.73;;;13.60;99.90;;;;;;5030107;28;20502;-74
2021/05/26 01:27:33;;;;;;;2.05;0.60;;;13.50;99.90;;;;;;5030612;28;20506;-75
2021/05/26 01:30:00;;;;;;;5.80;0.70;;;13.50;99.90;;;;;;5028379;28;20029;-74
2021/05/26 01:32:26;;;;;;;5.43;1.60;;;13.50;99.90;;;;;;5030974;28;20025;-74
2021/05/26 01:34:53;;;;;;;2.47;0.80;;;13.50;99.90;;;;;;5014526;28;20026;-74
2021/05/26 01:37:19;;;;;;;3.40;0.70;;;13.50;99.90;;;;;;5011775;28;20025;-74
2021/05/26 01:39:49;;;;;;;5.47;0.80;;;13.50;99.90;;;;;;5010195;28;20475;-73
2021/05/26 01:42:31;;;;;;;2.58;0.93;;;13.50;99.90;;;;;;5015634;28;20101;-74
2021/05/26 01:44:58;;;;;;;3.90;1.00;;;13.40;99.90;;;;;;5010905;28;20550;-75
2021/05/26 01:47:23;;;;;;;1.40;1.00;;;13.40;99.90;;;;;;5011772;28;20026;-74
2021/05/26 01:49:49;;;;;;;1.38;1.13;;;13.40;99.90;;;;;;5011480;28;20030;-73
2021/05/26 01:52:15;;;;;;;2.72;0.47;;;13.40;99.90;;;;;;5011925;28;20065;-74
2021/05/26 01:54:40;;;;;;;2.35;1.00;;;13.40;99.90;;;;;;5009839;28;20024;-75
2021/05/26 01:57:06;;;;;;;12.70;1.05;;;13.40;99.90;;;;;;5015340;28;20030;-75
2021/05/26 01:59:32;;;;;;;1.10;0.88;;;13.30;99.90;;;;;;5008960;28;20049;-75
2021/05/26 02:01:58;;;;;;;3.42;0.93;;;13.30;99.90;;;;;;5011855;28;20061;-75
2021/05/26 02:04:24;;;;;;;1.50;1.08;;;13.30;99.90;;;;;;5012310;28;20065;-75
2021/05/26 02:07:07;;;;;;;3.70;1.25;;;13.40;99.90;;;;;;5011570;28;20489;-75
2021/05/26 02:09:37;;;;;;;1.30;0.68;;;13.30;99.90;;;;;;5010429;28;20061;-75
2021/05/26 02:12:22;;;;;;;0.93;0.70;;;13.30;99.90;;;;;;5011014;28;20158;-76
2021/05/26 02:14:48;;;;;;;2.63;1.27;;;13.30;99.90;;;;;;5011915;28;20021;-74
2021/05/26 02:17:14;;;;;;;11.05;1.92;;;13.30;99.90;;;;;;5012020;28;20525;-74
2021/05/26 02:19:40;;;;;;;6.22;1.23;;;13.30;99.90;;;;;;5015217;28;20113;-76
2021/05/26 02:22:06;;;;;;;2.35;1.10;;;13.30;99.90;;;;;;5007898;28;20032;-76
2021/05/26 02:24:31;;;;;;;7.88;1.15;;;13.30;99.90;;;;;;5011511;28;20034;-75
2021/05/26 02:26:57;;;;;;;1.73;0.90;;;13.30;99.90;;;;;;5011276;28;20487;-76
2021/05/26 02:29:23;;;;;;;0.88;0.88;;;13.30;99.90;;;;;;5010377;28;20213;-75
2021/05/26 02:31:48;;;;;;;2.42;1.30;;;13.20;99.90;;;;;;5011816;28;20072;-75
2021/05/26 02:34:14;;;;;;;4.00;1.17;;;13.30;99.90;;;;;;5012369;28;20134;-74
2021/05/26 02:36:40;;;;;;;2.55;1.25;;;13.20;99.90;;;;;;5030792;28;20441;-75
2021/05/26 02:39:07;;;;;;;4.15;1.35;;;13.20;99.90;;;;;;5030228;28;20034;-75
2021/05/26 02:41:34;;;;;;;5.20;1.20;;;13.20;99.90;;;;;;5030615;28;20053;-75
2021/05/26 02:44:00;;;;;;;3.78;0.90;;;13.20;99.90;;;;;;5030600;28;20059;-75
2021/05/26 02:46:26;;;;;;;1.73;1.05;;;13.20;99.90;;;;;;5030312;28;20108;-76
2021/05/26 02:48:52;;;;;;;3.38;1.65;;;13.20;99.90;;;;;;5029869;28;20022;-75
2021/05/26 02:51:18;;;;;;;1.20;1.10;;;13.20;99.90;;;;;;5030472;28;20104;-75
2021/05/26 02:53:43;;;;;;;2.03;0.95;;;13.20;99.90;;;;;;5030131;28;20116;-75
2021/05/26 02:56:10;;;;;;;12.45;2.83;;;13.10;99.90;;;;;;5030276;28;20029;-74
2021/05/26 02:58:36;;;;;;;2.70;0.93;;;13.10;99.90;;;;;;5028980;28;20024;-74
2021/05/26 03:01:01;;;;;;;4.45;1.08;;;13.10;99.90;;;;;;5030986;28;20357;-76
2021/05/26 03:03:27;;;;;;;1.45;1.20;;;13.10;99.90;;;;;;5027100;28;20076;-77
2021/05/26 03:05:53;;;;;;;1.20;1.10;;;13.10;99.90;;;;;;5028891;28;20033;-75
2021/05/26 03:08:18;;;;;;;2.20;0.75;;;13.10;99.90;;;;;;5030090;28;20033;-75
2021/05/26 03:10:44;;;;;;;2.22;0.80;;;13.10;99.90;;;;;;5030805;28;20105;-75
2021/05/26 03:13:10;;;;;;;1.65;1.10;;;13.10;99.90;;;;;;5029791;28;20033;-75
2021/05/26 03:15:35;;;;;;;5.70;0.80;;;13.10;99.90;;;;;;5029868;28;20094;-74
2021/05/26 03:18:01;;;;;;;1.58;0.77;;;13.00;99.90;;;;;;5028370;28;20037;-74
2021/05/26 03:20:27;;;;;;;2.40;0.93;;;13.00;99.90;;;;;;5030467;28;20010;-74
2021/05/26 03:22:52;;;;;;;0.88;0.88;;;12.90;99.90;;;;;;5029890;28;20511;-74
2021/05/26 03:25:18;;;;;;;5.53;1.42;;;12.90;99.90;;;;;;5028573;28;20029;-75
2021/05/26 03:27:44;;;;;;;0.90;0.90;;;12.90;99.90;;;;;;5028852;28;20095;-75
2021/05/26 03:30:13;;;;;;;2.83;0.77;;;12.90;99.90;;;;;;5028733;28;20022;-73
2021/05/26 03:32:40;;;;;;;5.55;1.13;;;12.90;99.90;;;;;;5028943;28;20067;-77
2021/05/26 03:35:07;;;;;;;0.85;0.57;;;12.90;99.90;;;;;;5028148;28;20134;-75
2021/05/26 03:37:34;;;;;;;1.50;1.27;;;13.00;99.90;;;;;;5027889;28;20030;-75
2021/05/26 03:39:59;;;;;;;1.55;1.00;;;13.00;99.90;;;;;;5028222;28;20088;-74
2021/05/26 03:42:25;;;;;;;1.15;1.00;;;13.00;99.90;;;;;;5029919;28;20029;-74
2021/05/26 03:44:51;;;;;;;2.15;1.30;;;13.00;99.90;;;;;;5028431;28;20033;-75
2021/05/26 03:47:17;;;;;;;1.40;1.27;;;12.90;99.90;;;;;;5026032;28;20025;-76
2021/05/26 03:49:44;;;;;;;3.95;1.23;;;12.90;99.90;;;;;;5029348;28;20036;-75
2021/05/26 03:52:10;;;;;;;1.77;1.10;;;12.90;99.90;;;;;;5029181;28;20064;-74
2021/05/26 03:54:36;;;;;;;1.25;1.00;;;12.90;99.90;;;;;;5028991;28;20105;-72
2021/05/26 03:57:03;;;;;;;1.13;0.80;;;12.90;99.90;;;;;;5023588;28;20104;-74
2021/05/26 03:59:29;;;;;;;3.28;1.00;;;13.00;99.90;;;;;;5011165;28;20509;-74
2021/05/26 04:01:54;;;;;;;1.63;1.10;;;13.00;99.90;;;;;;5032731;28;20021;-73
2021/05/26 04:04:20;;;;;;;3.58;0.90;;;13.00;99.90;;;;;;5028668;28;20106;-73
2021/05/26 04:06:46;;;;;;;2.05;1.23;;;12.90;99.90;;;;;;5033030;28;20123;-75
2021/05/26 04:09:11;;;;;;;2.63;1.27;;;13.00;99.90;;;;;;5033288;28;20064;-75
2021/05/26 04:11:37;;;;;;;2.45;0.93;;;13.00;99.90;;;;;;5033158;28;20026;-74
2021/05/26 04:14:03;;;;;;;7.60;1.20;;;13.10;99.90;;;;;;5032672;28;20025;-75
2021/05/26 04:16:29;;;;;;;5.53;1.25;;;13.10;99.90;;;;;;5032682;28;20080;-75
2021/05/26 04:18:55;;;;;;;4.45;1.30;;;13.10;99.90;;;;;;5032590;28;20026;-75
2021/05/26 04:21:20;;;;;;;4.00;1.35;;;13.10;99.90;;;;;;5033408;28;20032;-76
2021/05/26 04:23:46;;;;;;;2.85;1.38;;;13.10;99.90;;;;;;5032928;28;20030;-74
2021/05/26 04:26:12;;;;;;;2.22;1.17;;;13.10;99.90;;;;;;5033988;28;20033;-76
2021/05/26 04:28:45;;;;;;;2.72;1.10;;;13.20;99.90;;;;;;5032098;28;20071;-75
2021/05/26 04:31:12;;;;;;;3.70;1.20;;;13.10;99.90;;;;;;5033627;28;20025;-74
2021/05/26 04:33:39;;;;;;;4.18;1.15;;;13.10;99.90;;;;;;5031998;28;20018;-75
2021/05/26 04:36:06;;;;;;;7.72;2.05;;;13.10;99.90;;;;;;5033489;28;20025;-75
2021/05/26 04:38:32;;;;;;;2.97;0.85;;;13.10;99.90;;;;;;5031498;28;20487;-76
2021/05/26 04:40:59;;;;;;;3.35;1.02;;;13.10;99.90;;;;;;5033756;28;20356;-76
2021/05/26 04:43:26;;;;;;;2.97;1.13;;;13.10;99.90;;;;;;5030441;28;20497;-74
2021/05/26 04:45:52;;;;;;;1.20;1.08;;;13.10;99.90;;;;;;5032837;28;20064;-76
2021/05/26 04:48:18;;;;;;;1.60;1.48;;;13.20;99.90;;;;;;5031766;28;20060;-75
2021/05/26 04:50:44;;;;;;;6.05;2.17;;;13.20;99.90;;;;;;5030265;28;20051;-75
2021/05/26 04:53:10;;;;;;;2.97;1.00;;;13.30;99.90;;;;;;5030551;28;20096;-70
2021/05/26 04:55:35;;;;;;;5.55;1.40;;;13.40;99.90;;;;;;5034087;28;20052;-73
2021/05/26 04:58:06;;;;;;;1.30;1.20;;;13.40;99.90;;;;;;5033073;28;20017;-73
2021/05/26 05:00:33;;;;;;;1.40;1.30;;;13.50;99.90;;;;;;5028313;28;20080;-74
2021/05/26 05:02:59;;;;;;;3.85;1.08;;;13.50;99.90;;;;;;5023301;28;20029;-76
2021/05/26 05:05:34;;;;;;;6.05;2.25;;;13.60;99.90;;;;;;5032059;28;20077;-72
2021/05/26 05:08:01;;;;;;;3.33;0.95;;;13.60;99.90;;;;;;5036728;28;20079;-73
2021/05/26 05:10:27;;;;;;;3.13;1.27;;;13.70;99.90;;;;;;5036300;28;20022;-73
2021/05/26 05:12:53;;;;;;;1.05;0.90;;;13.70;99.90;;;;;;5033809;28;20025;-73
2021/05/26 05:15:18;;;;;;;4.35;1.27;;;13.80;99.90;;;;;;5030554;28;20024;-72
2021/05/26 05:17:48;;;;;;;2.80;1.25;;;13.90;99.90;;;;;;5032225;28;20480;-72
2021/05/26 05:20:16;;;;;;;2.55;1.52;;;13.90;99.90;;;;;;5032696;28;20044;-72
2021/05/26 05:22:42;;;;;;;2.97;2.78;;;13.90;99.90;;;;;;5028112;28;20021;-71
2021/05/26 05:25:10;;;;;;;3.50;2.25;;;14.00;99.90;;;;;;5031442;28;20487;-75
2021/05/26 05:27:36;;;;;;;2.13;1.10;;;14.10;99.90;;;;;;5031719;28;20536;-74
2021/05/26 05:30:04;;;;;;;2.33;1.50;;;14.00;99.90;;;;;;5036155;28;20062;-73
2021/05/26 05:32:30;;;;;;;1.92;1.17;;;14.10;99.90;;;;;;5032163;28;20088;-72
2021/05/26 05:34:56;;;;;;;1.95;1.17;;;14.20;99.90;;;;;;5035064;28;20026;-74
2021/05/26 05:37:22;;;;;;;6.10;1.35;;;14.30;99.90;;;;;;5032832;28;20510;-74
2021/05/26 05:39:48;;;;;;;2.08;1.30;;;14.40;99.90;;;;;;5038596;28;20025;-72
2021/05/26 05:42:13;;;;;;;6.00;1.10;;;14.40;99.90;;;;;;5040038;28;20025;-71
2021/05/26 05:44:39;;;;;;;4.03;1.48;;;14.50;99.90;;;;;;5033519;28;20387;-71
2021/05/26 05:47:05;;;;;;;1.90;1.20;;;14.50;99.90;;;;;;5035329;28;20494;-73
2021/05/26 05:49:30;;;;;;;7.00;1.50;;;14.60;99.90;;;;;;5037022;28;20041;-72
2021/05/26 05:51:56;;;;;;;3.38;1.20;;;14.70;99.90;;;;;;5034529;28;20033;-72
2021/05/26 05:54:22;;;;;;;1.40;1.30;;;14.80;99.90;;;;;;5030889;28;20093;-71
2021/05/26 05:56:47;;;;;;;2.55;1.30;;;14.90;99.90;;;;;;5033326;28;20381;-73
2021/05/26 05:59:13;;;;;;;4.45;1.50;;;15.00;99.90;;;;;;5032711;28;20049;-73
2021/05/26 06:01:39;;;;;;;7.90;1.75;;;15.10;99.90;;;;;;5030530;28;20032;-73
2021/05/26 06:04:05;;;;;;;3.05;1.30;;;15.20;99.90;;;;;;5030210;28;20033;-72
2021/05/26 06:06:30;;;;;;;4.03;1.08;;;15.30;99.90;;;;;;5025749;28;20108;-70
2021/05/26 06:08:56;;;;;;;7.45;1.23;;;15.40;99.90;;;;;;5033649;28;20025;-72
2021/05/26 06:11:22;;;;;;;3.53;1.23;;;15.30;99.90;;;;;;5021379;28;20017;-73
2021/05/26 06:13:49;;;;;;;1.10;0.93;;;15.40;99.90;;;;;;5035631;28;20403;-73
2021/05/26 06:16:16;;;;;;;2.97;1.08;;;15.50;99.90;;;;;;5032834;28;20183;-73
2021/05/26 06:18:42;;;;;;;1.70;1.05;;;15.50;99.90;;;;;;5030103;28;20096;-72
2021/05/26 06:21:07;;;;;;;1.63;1.33;;;15.60;99.90;;;;;;5027326;28;20144;-74
2021/05/26 06:23:34;;;;;;;7.72;1.25;;;15.60;99.90;;;;;;5031360;28;20036;-73
2021/05/26 06:26:01;;;;;;;3.22;1.40;;;15.70;99.90;;;;;;5030465;28;20104;-74
2021/05/26 06:28:27;;;;;;;3.92;1.85;;;15.80;99.90;;;;;;5032589;28;20033;-73
2021/05/26 06:30:53;;;;;;;3.60;1.10;;;15.90;99.90;;;;;;5032719;28;20032;-73
2021/05/26 06:33:19;;;;;;;2.90;1.95;;;16.00;99.90;;;;;;5031691;28;20090;-72
2021/05/26 06:35:44;;;;;;;1.88;1.60;;;16.10;99.90;;;;;;5029878;28;20061;-73
2021/05/26 06:38:10;;;;;;;6.80;1.65;;;16.20;99.90;;;;;;5033014;28;20017;-73
2021/05/26 06:40:36;;;;;;;2.67;1.35;;;16.40;99.90;;;;;;5032345;28;20506;-72
2021/05/26 06:43:01;;;;;;;2.20;1.00;;;16.50;99.90;;;;;;5031569;28;20021;-73
2021/05/26 06:45:27;;;;;;;2.90;1.38;;;16.60;99.90;;;;;;5029831;28;20502;-74
2021/05/26 06:47:53;;;;;;;4.65;1.80;;;16.70;99.90;;;;;;5039269;28;20036;-73
2021/05/26 06:50:18;;;;;;;5.22;1.17;;;16.80;99.90;;;;;;5031544;28;20036;-73
2021/05/26 06:52:44;;;;;;;3.95;1.65;;;16.80;99.90;;;;;;5033779;28;20467;-72
2021/05/26 06:55:10;;;;;;;1.67;1.30;;;16.90;99.90;;;;;;5028949;28;20036;-72
2021/05/26 06:57:36;;;;;;;3.83;1.42;;;17.00;99.90;;;;;;5030421;28;20025;-72
2021/05/26 07:00:04;;;;;;;0.90;0.85;;;17.00;99.90;;;;;;5036874;28;20033;-75
2021/05/26 07:02:30;;;;;;;1.13;0.93;;;17.10;99.90;;;;;;5029329;28;20475;-72
2021/05/26 07:04:56;;;;;;;4.43;2.05;;;17.20;99.90;;;;;;5031008;28;20032;-74
2021/05/26 07:07:21;;;;;;;2.47;1.55;;;17.30;99.90;;;;;;5031078;28;20037;-72
2021/05/26 07:09:47;;;;;;;7.10;1.33;;;17.50;99.90;;;;;;5029589;28;20121;-73
2021/05/26 07:12:13;;;;;;;7.07;2.53;;;17.50;99.90;;;;;;5028258;28;20498;-74
2021/05/26 07:14:39;;;;;;;7.68;2.55;;;17.70;99.90;;;;;;5036889;28;20030;-74
2021/05/26 07:17:05;;;;;;;1.98;1.10;;;17.70;99.90;;;;;;5030309;28;20022;-73
2021/05/26 07:19:31;;;;;;;6.35;2.55;;;17.80;99.90;;;;;;5033052;28;20030;-73
2021/05/26 07:21:56;;;;;;;4.22;1.58;;;17.90;99.90;;;;;;5023165;28;20017;-72
2021/05/26 07:24:22;;;;;;;6.60;1.73;;;18.00;99.90;;;;;;5034613;28;20340;-74
2021/05/26 07:26:48;;;;;;;5.05;1.20;;;18.20;99.90;;;;;;5025551;28;20072;-74
2021/05/26 07:29:14;;;;;;;4.38;1.02;;;18.20;99.90;;;;;;5031987;28;20096;-73
2021/05/26 07:31:41;;;;;;;7.55;1.58;;;18.30;99.90;;;;;;5030137;28;20028;-73
2021/05/26 07:34:07;;;;;;;6.63;1.67;;;18.30;99.90;;;;;;5032549;28;20300;-74
2021/05/26 07:36:33;;;;;;;2.08;1.27;;;18.40;99.90;;;;;;5019741;28;20071;-73
2021/05/26 07:39:00;;;;;;;1.80;1.50;;;18.50;99.90;;;;;;5036174;28;20441;-73
2021/05/26 07:41:26;;;;;;;12.68;3.63;;;18.60;99.90;;;;;;5031829;28;20029;-72
2021/05/26 07:43:52;;;;;;;5.40;2.50;;;18.60;99.90;;;;;;5039971;28;20116;-73
2021/05/26 07:46:18;;;;;;;6.47;1.70;;;18.70;99.90;;;;;;5030738;28;20109;-73
2021/05/26 07:48:44;;;;;;;9.55;4.05;;;18.70;99.90;;;;;;5028363;28;20033;-72
2021/05/26 07:51:14;;;;;;;5.60;1.77;;;18.80;99.90;;;;;;5034273;28;20056;-72
2021/05/26 07:53:40;;;;;;;5.72;1.92;;;18.90;99.90;;;;;;5034374;28;20458;-73
2021/05/26 07:56:05;;;;;;;5.70;1.98;;;18.90;99.90;;;;;;5013471;28;20335;-72
2021/05/26 07:58:31;;;;;;;6.40;2.08;;;18.90;99.90;;;;;;5020792;28;20075;-72
2021/05/26 08:00:57;;;;;;;4.85;2.13;;;19.00;99.90;;;;;;5034397;28;20022;-73
2021/05/26 08:03:23;;;;;;;5.63;2.70;;;19.10;99.90;;;;;;5032362;28;20089;-76
2021/05/26 08:05:48;;;;;;;7.30;1.73;;;19.10;99.90;;;;;;5038343;28;20021;-74
2021/05/26 08:08:14;;;;;;;4.15;2.17;;;19.20;99.90;;;;;;5023695;28;20056;-76
2021/05/26 08:10:40;;;;;;;14.48;2.95;;;19.30;99.90;;;;;;5038089;28;20029;-75
2021/05/26 08:13:06;;;;;;;4.95;2.53;;;19.40;99.90;;;;;;5039028;28;20095;-74
2021/05/26 08:15:32;;;;;;;16.73;5.13;;;19.40;99.90;;;;;;5045493;28;20556;-75
2021/05/26 08:17:57;;;;;;;7.00;2.33;;;19.50;99.90;;;;;;5037223;28;20021;-76
2021/05/26 08:20:23;;;;;;;7.65;2.00;;;19.60;99.90;;;;;;5029258;28;20103;-75
2021/05/26 08:22:49;;;;;;;5.03;1.73;;;19.60;99.90;;;;;;5039052;28;20025;-73
2021/05/26 08:25:15;;;;;;;19.60;4.45;;;19.60;99.90;;;;;;5032927;28;20513;-74
2021/05/26 08:27:41;;;;;;;17.08;5.85;;;19.70;99.90;;;;;;5035900;28;20542;-74
2021/05/26 08:30:07;;;;;;;13.93;4.55;;;19.80;99.90;;;;;;5034410;28;20029;-72
2021/05/26 08:32:33;;;;;;;23.50;5.32;;;20.00;99.90;;;;;;5034879;28;20072;-73
2021/05/26 08:34:59;;;;;;;12.73;2.83;;;20.00;99.90;;;;;;5046867;28;20494;-73
2021/05/26 08:37:25;;;;;;;6.97;1.77;;;20.00;99.90;;;;;;5041642;28;20017;-74
2021/05/26 08:39:53;;;;;;;37.38;9.20;;;20.10;99.90;;;;;;5045305;28;20029;-74
2021/05/26 08:42:19;;;;;;;2.63;1.90;;;20.30;99.90;;;;;;5043256;28;20118;-71
2021/05/26 08:44:46;;;;;;;8.43;1.95;;;20.30;99.90;;;;;;5043994;28;20053;-74
2021/05/26 08:47:19;;;;;;;8.00;1.70;;;20.30;99.90;;;;;;5033120;28;20026;-74
2021/05/26 08:49:46;;;;;;;5.43;1.58;;;20.40;99.90;;;;;;5041101;28;20040;-72
2021/05/26 08:52:14;;;;;;;8.45;1.70;;;20.40;99.90;;;;;;5042907;28;20036;-75
2021/05/26 08:54:47;;;;;;;4.95;1.80;;;20.50;99.90;;;;;;5022089;28;20577;-74
2021/05/26 08:57:13;;;;;;;4.00;1.80;;;20.50;99.90;;;;;;5039181;28;20657;-74
2021/05/26 08:59:39;;;;;;;4.50;2.53;;;20.50;99.90;;;;;;5045161;28;20380;-74
2021/05/26 09:02:08;;;;;;;9.15;1.88;;;20.50;99.90;;;;;;5036480;28;20036;-71
2021/05/26 09:04:35;;;;;;;8.50;2.65;;;20.50;99.90;;;;;;5030075;28;20037;-70
2021/05/26 09:07:08;;;;;;;6.53;2.55;;;20.40;99.90;;;;;;5040939;28;20017;-73
2021/05/26 09:09:47;;;;;;;9.13;2.67;;;20.30;99.90;;;;;;5053153;28;20021;-76
2021/05/26 09:12:14;;;;;;;7.43;2.30;;;20.40;99.90;;;;;;5039687;28;20083;-74
2021/05/26 09:14:40;;;;;;;6.00;2.05;;;20.20;99.90;;;;;;5023818;28;20487;-74
2021/05/26 09:17:12;;;;;;;3.50;1.60;;;20.20;99.90;;;;;;5047388;28;20054;-74
2021/05/26 09:19:39;;;;;;;7.68;2.25;;;20.20;99.90;;;;;;5044288;28;20487;-74
2021/05/26 09:22:13;;;;;;;4.80;2.58;;;20.20;99.90;;;;;;5041876;28;21446;-73
2021/05/26 09:24:39;;;;;;;8.80;2.53;;;20.10;99.90;;;;;;5033481;28;20078;-72
2021/05/26 09:27:08;;;;;;;6.63;2.53;;;20.00;99.90;;;;;;5044495;28;20470;-71
2021/05/26 09:29:44;;;;;;;4.50;2.08;;;19.90;99.90;;;;;;5042640;28;20061;-72
2021/05/26 09:32:24;;;;;;;6.32;3.72;;;19.80;99.90;;;;;;5037333;28;20068;-73
2021/05/26 09:34:55;;;;;;;9.63;2.53;;;19.80;99.90;;;;;;5030319;28;20067;-72
2021/05/26 09:37:29;;;;;;;7.75;2.97;;;19.90;99.90;;;;;;5048868;28;20021;-73
2021/05/26 09:40:11;;;;;;;10.68;3.33;;;19.90;99.90;;;;;;5039239;28;20028;-71
2021/05/26 09:42:49;;;;;;;21.20;3.20;;;19.90;99.90;;;;;;5032452;28;20055;-72
2021/05/26 09:45:26;;;;;;;6.40;1.83;;;19.90;99.90;;;;;;5039518;28;20056;-72
2021/05/26 09:47:56;;;;;;;5.35;2.05;;;19.80;99.90;;;;;;5022459;28;20536;-72
2021/05/26 09:50:34;;;;;;;5.72;2.15;;;19.80;99.90;;;;;;5018751;28;20029;-73
2021/05/26 09:53:13;;;;;;;9.35;2.30;;;19.80;99.90;;;;;;5042641;28;20026;-72
2021/05/26 09:55:46;;;;;;;9.48;1.95;;;19.70;99.90;;;;;;5041257;28;20027;-73
2021/05/26 09:58:14;;;;;;;8.27;1.70;;;19.60;99.90;;;;;;5017475;28;20022;-73
2021/05/26 10:00:43;;;;;;;6.85;3.30;;;19.60;99.90;;;;;;5041359;28;20443;-73
2021/05/26 10:03:08;;;;;;;14.35;3.83;;;19.70;99.90;;;;;;5035474;28;20037;-74
2021/05/26 10:05:34;;;;;;;18.63;2.58;;;19.70;99.90;;;;;;5039418;28;20029;-73
2021/05/26 10:08:04;;;;;;;17.30;2.83;;;19.60;99.90;;;;;;5041789;28;20061;-74
2021/05/26 10:10:31;;;;;;;8.52;2.72;;;19.70;99.90;;;;;;5033888;28;20025;-71
2021/05/26 10:13:00;;;;;;;13.45;3.35;;;19.80;99.90;;;;;;5022008;28;20029;-71
2021/05/26 10:15:28;;;;;;;7.72;2.40;;;19.70;99.90;;;;;;5033558;28;20112;-71
2021/05/26 10:17:55;;;;;;;10.23;2.17;;;19.60;99.90;;;;;;5035095;28;20093;-72
2021/05/26 10:20:43;;;;;;;17.98;2.97;;;19.50;99.90;;;;;;5040470;28;20108;-73
2021/05/26 10:23:16;;;;;;;11.68;2.45;;;19.40;99.90;;;;;;5034631;28;20113;-74
2021/05/26 10:25:43;;;;;;;13.38;3.17;;;19.40;99.90;;;;;;5027963;28;20144;-74
2021/05/26 10:28:25;;;;;;;7.10;2.03;;;19.50;99.90;;;;;;5016617;28;20025;-74
2021/05/26 10:30:51;;;;;;;5.55;2.60;;;19.50;99.90;;;;;;5039600;28;20032;-73
2021/05/26 10:33:17;;;;;;;9.60;2.72;;;19.40;99.90;;;;;;5037937;28;20277;-74
2021/05/26 10:35:57;;;;;;;12.23;3.35;;;19.50;99.90;;;;;;5031368;28;20356;-74
2021/05/26 10:38:23;;;;;;;13.32;2.05;;;19.60;99.90;;;;;;5030059;28;20444;-73
2021/05/26 10:40:51;;;;;;;14.85;2.17;;;19.60;99.90;;;;;;5031055;28;20104;-74
2021/05/26 10:43:21;;;;;;;14.05;2.70;;;19.50;99.90;;;;;;5031226;28;20499;-75
2021/05/26 10:45:50;;;;;;;7.50;2.35;;;19.40;99.90;;;;;;5031117;28;20021;-73
2021/05/26 10:48:43;;;;;;;12.75;2.50;;;19.30;99.90;;;;;;5022626;28;20029;-72
2021/05/26 10:51:11;;;;;;;7.85;2.70;;;19.40;99.90;;;;;;5028319;28;20117;-73
2021/05/26 10:53:45;;;;;;;9.60;2.58;;;19.40;99.90;;;;;;5029280;28;20022;-72
2021/05/26 10:56:36;;;;;;;10.70;3.13;;;19.40;99.90;;;;;;5031723;28;20036;-73
2021/05/26 10:59:14;;;;;;;9.80;4.25;;;19.40;99.90;;;;;;5030657;28;20035;-74
2021/05/26 11:02:02;;;;;;;10.77;2.38;;;19.60;99.90;;;;;;5033966;28;20060;-74
2021/05/26 11:04:28;;;;;;;13.63;3.30;;;19.50;99.90;;;;;;5026402;28;20029;-73
2021/05/26 11:07:21;;;;;;;6.10;2.95;;;19.60;99.90;;;;;;5037183;28;20029;-73
2021/05/26 11:10:07;;;;;;;5.35;2.42;;;19.70;99.90;;;;;;5029430;28;20265;-73
2021/05/26 11:12:59;;;;;;;7.53;2.50;;;19.80;99.90;;;;;;5041497;28;20018;-73
2021/05/26 11:15:44;;;;;;;;;;;19.70;99.90;;;;;;5029679;28;20026;-73
2021/05/26 11:18:41;;;;;;;4.90;2.05;;;19.60;99.90;;;;;;5030385;28;19909;-73
2021/05/26 11:21:14;;;;;;;7.40;2.25;;;19.60;99.90;;;;;;5029256;28;20037;-73
2021/05/26 11:23:40;;;;;;;10.65;2.92;;;19.80;99.90;;;;;;5029548;28;20030;-73
2021/05/26 11:26:07;;;;;;;3.70;2.00;;;19.80;99.90;;;;;;5031811;28;20112;-72
2021/05/26 11:28:35;;;;;;;11.77;2.20;;;19.70;99.90;;;;;;5029929;28;20507;-74
2021/05/26 11:31:09;;;;;;;6.43;1.98;;;19.60;99.90;;;;;;5030885;28;20029;-74
2021/05/26 11:33:36;;;;;;;3.55;1.80;;;19.70;99.90;;;;;;5037159;28;20021;-73
2021/05/26 11:36:05;;;;;;;7.47;2.15;;;19.90;99.90;;;;;;5045156;28;20028;-72
2021/05/26 11:38:33;;;;;;;11.13;2.90;;;20.10;99.90;;;;;;5041532;28;20037;-73
2021/05/26 11:41:01;;;;;;;6.32;2.33;;;20.10;99.90;;;;;;5042621;28;20017;-73
2021/05/26 11:43:32;;;;;;;6.80;2.10;;;20.10;99.90;;;;;;5041458;28;20403;-75
2021/05/26 11:46:06;;;;;;;7.30;2.22;;;20.00;99.90;;;;;;5023074;28;20386;-74
2021/05/26 11:48:32;;;;;;;6.40;2.33;;;19.90;99.90;;;;;;5014537;28;20097;-73
2021/05/26 11:51:00;;;;;;;8.18;2.33;;;19.90;99.90;;;;;;5041124;28;20025;-73
2021/05/26 11:53:26;;;;;;;12.80;4.10;;;20.20;99.90;;;;;;5015652;28;20033;-74
2021/05/26 11:55:58;;;;;;;9.20;3.03;;;20.50;99.90;;;;;;5037187;28;20021;-72
2021/05/26 11:58:37;;;;;;;7.40;2.63;;;20.70;99.90;;;;;;5039212;28;20087;-74
2021/05/26 12:01:08;;;;;;;6.03;2.92;;;20.60;99.90;;;;;;5042324;28;20032;-75
2021/05/26 12:03:34;;;;;;;9.32;2.67;;;20.70;99.90;;;;;;5021453;28;20068;-74
2021/05/26 12:06:01;;;;;;;13.55;2.97;;;20.40;99.90;;;;;;5043972;28;20032;-72
2021/05/26 12:08:32;;;;;;;15.25;3.80;;;20.20;99.90;;;;;;5043380;28;20437;-74
2021/05/26 12:11:02;;;;;;;7.28;2.17;;;20.30;99.90;;;;;;5037775;28;20017;-74
2021/05/26 12:13:30;;;;;;;4.15;1.83;;;20.40;99.90;;;;;;5017447;28;20045;-74
2021/05/26 12:15:59;;;;;;;8.52;2.00;;;20.40;99.90;;;;;;5039598;28;20486;-75
2021/05/26 12:18:25;;;;;;;9.65;2.70;;;20.30;99.90;;;;;;5047401;28;20025;-73
2021/05/26 12:20:53;;;;;;;13.15;2.60;;;20.20;99.90;;;;;;5040932;28;20021;-74
2021/05/26 12:23:41;;;;;;;6.53;2.22;;;20.20;99.90;;;;;;5039267;28;20368;-74
2021/05/26 12:26:33;;;;;;;7.20;2.05;;;20.20;99.90;;;;;;5041719;28;20399;-72
2021/05/26 12:29:06;;;;;;;5.28;1.98;;;20.30;99.90;;;;;;5039829;28;20049;-74
2021/05/26 12:31:32;;;;;;;5.68;2.25;;;20.20;99.90;;;;;;5041299;28;20108;-73
2021/05/26 12:33:58;;;;;;;7.43;3.50;;;20.20;99.90;;;;;;5035660;28;20112;-75
2021/05/26 12:36:27;;;;;;;7.40;2.63;;;20.20;99.90;;;;;;5033997;28;20484;-74
2021/05/26 12:39:03;;;;;;;5.30;1.95;;;20.20;99.90;;;;;;5033142;28;20049;-74
2021/05/26 12:41:36;;;;;;;9.45;2.30;;;20.30;99.90;;;;;;5033746;28;20096;-73
2021/05/26 12:44:07;;;;;;;11.20;2.65;;;20.30;99.90;;;;;;5030331;28;20030;-74
2021/05/26 12:46:43;;;;;;;9.90;4.10;;;20.40;99.90;;;;;;5033482;28;20487;-73
2021/05/26 12:49:40;;;;;;;4.38;1.80;;;20.50;99.90;;;;;;5039121;28;20064;-75
2021/05/26 12:52:11;;;;;;;8.25;1.92;;;20.40;99.90;;;;;;5017251;28;20131;-73